Time;durP1;ratioP1;P1;durP2;ratioP2;P2;SDS_P1;SDS_P2;PMS_P1;PMS_P2;Temp;Humidity;BMP_temperature;BMP_pressure;BME280_temperature;BME280_humidity;BME280_pressure;Samples;Min_cycle;Max_cycle;Signal;HPM_P1;HPM_P2
2021/10/26 00:00:48;;;;;;;6.32;1.77;;;;;;;14.99;50.91;102420.25;144994;566;5002;-82
2021/10/26 00:03:15;;;;;;;5.25;1.70;;;;;;;14.89;51.35;102425.97;144994;564;5002;-83
2021/10/26 00:05:41;;;;;;;5.28;1.85;;;;;;;14.90;51.24;102429.47;144994;617;5002;-83
2021/10/26 00:08:08;;;;;;;4.45;2.00;;;;;;;14.87;51.11;102435.47;144994;584;5002;-83
2021/10/26 00:10:35;;;;;;;4.37;1.90;;;;;;;14.88;51.06;102430.31;144994;626;5002;-82
2021/10/26 00:13:02;;;;;;;3.58;2.37;;;;;;;14.78;51.60;102425.56;144994;639;5002;-83
2021/10/26 00:15:29;;;;;;;4.32;2.65;;;;;;;14.77;51.39;102423.75;144994;583;5002;-83
2021/10/26 00:17:55;;;;;;;6.10;2.17;;;;;;;14.80;51.27;102425.63;144994;605;5002;-83
2021/10/26 00:20:22;;;;;;;3.92;2.00;;;;;;;14.86;51.33;102431.09;144994;628;5002;-83
2021/10/26 00:22:48;;;;;;;3.80;2.12;;;;;;;14.84;51.86;102419.66;144994;581;5002;-83
2021/10/26 00:25:16;;;;;;;3.87;2.40;;;;;;;14.82;51.37;102414.38;144994;563;5002;-82
2021/10/26 00:27:43;;;;;;;7.07;2.35;;;;;;;14.84;51.36;102407.50;144994;596;5002;-82
2021/10/26 00:30:10;;;;;;;6.78;2.72;;;;;;;14.88;51.34;102404.16;144994;637;5002;-82
2021/10/26 00:32:37;;;;;;;5.82;1.83;;;;;;;14.93;51.31;102399.09;144994;580;5002;-83
2021/10/26 00:35:04;;;;;;;6.30;1.87;;;;;;;14.97;51.33;102400.09;144994;588;5002;-82
2021/10/26 00:37:31;;;;;;;7.45;2.33;;;;;;;14.99;51.36;102394.12;144994;706;5002;-82
2021/10/26 00:39:58;;;;;;;4.90;2.03;;;;;;;14.98;51.42;102392.31;144994;611;5002;-83
2021/10/26 00:42:28;;;;;;;5.85;2.05;;;;;;;15.00;51.25;102392.37;144994;573;5002;-84
2021/10/26 00:44:54;;;;;;;6.72;2.20;;;;;;;15.01;51.45;102394.19;144994;625;5002;-83
2021/10/26 00:47:21;;;;;;;4.57;2.03;;;;;;;15.01;51.12;102389.81;144994;608;5002;-82
2021/10/26 00:49:47;;;;;;;6.32;2.35;;;;;;;15.01;52.15;102384.59;144994;569;5002;-83
2021/10/26 00:52:14;;;;;;;4.65;2.12;;;;;;;15.00;51.34;102381.91;144993;596;5002;-83
2021/10/26 00:54:40;;;;;;;4.57;2.20;;;;;;;14.99;51.52;102374.94;144994;640;5002;-84
2021/10/26 00:57:07;;;;;;;4.18;2.05;;;;;;;15.01;51.50;102363.66;144994;580;5002;-82
2021/10/26 00:59:34;;;;;;;8.50;2.20;;;;;;;15.03;51.31;102367.25;144994;583;5002;-83
2021/10/26 01:02:05;;;;;;;4.40;1.90;;;;;;;15.05;51.35;102360.34;144994;586;5002;-83
2021/10/26 01:04:31;;;;;;;7.45;2.20;;;;;;;15.03;51.40;102355.87;144994;599;5002;-83
2021/10/26 01:06:58;;;;;;;4.75;2.37;;;;;;;15.02;51.25;102354.12;144994;605;5002;-83
2021/10/26 01:09:24;;;;;;;4.65;2.20;;;;;;;15.04;51.22;102353.31;144994;622;5002;-84
2021/10/26 01:11:51;;;;;;;6.62;2.30;;;;;;;14.97;51.08;102351.34;144994;574;5002;-84
2021/10/26 01:14:18;;;;;;;5.22;2.70;;;;;;;14.99;51.22;102346.16;144994;602;5002;-83
2021/10/26 01:17:08;;;;;;;3.97;1.85;;;;;;;14.97;51.57;102359.19;144994;595;5002;-82
2021/10/26 01:20:11;;;;;;;4.55;2.28;;;;;;;15.03;51.77;102356.81;144994;668;5002;-85
2021/10/26 01:22:41;;;;;;;3.40;2.37;;;;;;;15.12;51.32;102348.37;144994;609;5004;-83
2021/10/26 01:25:16;;;;;;;5.37;2.10;;;;;;;15.15;51.33;102348.50;144994;647;5004;-82
2021/10/26 01:27:48;;;;;;;5.55;1.87;;;;;;;15.14;51.48;102344.09;144994;589;5005;-84
2021/10/26 01:30:16;;;;;;;5.68;2.40;;;;;;;14.99;51.71;102343.53;144994;612;5004;-83
2021/10/26 01:32:42;;;;;;;5.18;2.25;;;;;;;14.99;51.90;102341.81;144994;612;5004;-82
2021/10/26 01:35:09;;;;;;;4.12;2.25;;;;;;;15.01;51.68;102336.62;144994;602;5004;-83
2021/10/26 01:37:36;;;;;;;4.75;2.00;;;;;;;15.01;51.74;102334.91;144994;609;5004;-82
2021/10/26 01:40:03;;;;;;;4.53;2.30;;;;;;;14.99;51.49;102327.84;144994;636;5004;-83
2021/10/26 01:42:30;;;;;;;4.25;1.95;;;;;;;14.99;51.74;102339.19;144994;610;5004;-83
2021/10/26 01:44:56;;;;;;;5.37;1.90;;;;;;;14.99;51.47;102333.97;144994;571;5004;-83
2021/10/26 01:47:23;;;;;;;3.87;1.75;;;;;;;15.00;51.27;102334.84;144994;626;5004;-83
2021/10/26 01:49:50;;;;;;;6.97;2.47;;;;;;;15.03;51.14;102329.72;144994;561;5004;-82
2021/10/26 01:52:16;;;;;;;3.60;2.00;;;;;;;15.03;51.16;102334.97;144994;594;5004;-82
2021/10/26 01:54:43;;;;;;;4.65;1.60;;;;;;;15.01;51.05;102334.91;144994;579;5004;-83
2021/10/26 01:57:09;;;;;;;5.90;1.90;;;;;;;15.00;51.10;102340.06;144994;573;5004;-83
2021/10/26 01:59:36;;;;;;;5.85;2.05;;;;;;;15.01;51.28;102334.03;144994;588;5004;-83
2021/10/26 02:02:03;;;;;;;4.60;1.83;;;;;;;15.03;51.35;102325.41;144994;593;5004;-83
2021/10/26 02:04:31;;;;;;;4.65;2.30;;;;;;;15.03;51.27;102322.81;144994;682;5004;-83
2021/10/26 02:06:58;;;;;;;4.85;2.08;;;;;;;14.93;51.13;102320.66;144994;656;5004;-82
2021/10/26 02:09:25;;;;;;;2.80;1.80;;;;;;;14.86;51.70;102326.50;144994;582;5004;-83
2021/10/26 02:11:51;;;;;;;3.42;1.70;;;;;;;14.86;51.52;102326.50;144994;609;5004;-83
2021/10/26 02:14:18;;;;;;;3.75;1.58;;;;;;;14.88;51.59;102325.72;144994;592;5004;-83
2021/10/26 02:16:44;;;;;;;3.83;1.65;;;;;;;14.92;51.23;102328.44;144994;584;5004;-83
2021/10/26 02:19:10;;;;;;;3.45;1.73;;;;;;;14.95;51.21;102339.91;144994;578;5000;-83
2021/10/26 02:21:37;;;;;;;2.75;1.80;;;;;;;14.99;51.35;102335.69;144994;637;5004;-84
2021/10/26 02:24:04;;;;;;;3.72;1.85;;;;;;;15.03;51.27;102329.72;144994;658;5004;-83
2021/10/26 02:26:31;;;;;;;5.82;2.25;;;;;;;15.05;51.50;102335.94;144994;585;5004;-84
2021/10/26 02:28:57;;;;;;;3.95;1.90;;;;;;;15.12;51.37;102335.31;144994;607;5004;-85
2021/10/26 02:31:24;;;;;;;3.80;1.90;;;;;;;15.16;51.44;102338.91;144994;584;5004;-82
2021/10/26 02:33:50;;;;;;;3.20;1.83;;;;;;;15.16;51.28;102336.31;144994;582;5004;-83
2021/10/26 02:36:17;;;;;;;7.40;2.00;;;;;;;15.14;51.20;102341.47;144994;590;5004;-84
2021/10/26 02:38:43;;;;;;;4.72;1.60;;;;;;;15.14;51.47;102336.25;144994;604;5004;-84
2021/10/26 02:41:10;;;;;;;3.95;1.83;;;;;;;15.15;51.11;102337.16;144994;582;5004;-83
2021/10/26 02:43:36;;;;;;;3.78;2.00;;;;;;;15.17;51.28;102327.63;144994;573;5004;-83
2021/10/26 02:46:03;;;;;;;4.40;1.70;;;;;;;15.17;51.15;102331.13;144994;684;5004;-83
2021/10/26 02:48:30;;;;;;;5.20;1.85;;;;;;;15.20;51.24;102339.09;144994;599;5004;-83
2021/10/26 02:50:57;;;;;;;6.03;2.00;;;;;;;15.21;51.61;102325.19;144994;587;5004;-82
2021/10/26 02:53:24;;;;;;;3.60;1.77;;;;;;;15.18;51.28;102321.59;144994;583;5004;-83
2021/10/26 02:55:51;;;;;;;3.28;1.90;;;;;;;15.11;51.40;102325.69;144994;565;5004;-83
2021/10/26 02:58:21;;;;;;;4.80;2.00;;;;;;;14.98;51.03;102320.84;144994;577;5011;-83
2021/10/26 03:00:48;;;;;;;5.05;1.85;;;;;;;14.80;51.96;102324.53;144994;628;5004;-83
2021/10/26 03:03:15;;;;;;;4.07;2.00;;;;;;;14.83;51.95;102327.28;144994;619;5004;-82
2021/10/26 03:05:41;;;;;;;2.50;1.50;;;;;;;14.87;51.86;102321.34;144994;571;5004;-83
2021/10/26 03:08:08;;;;;;;5.20;1.80;;;;;;;14.94;51.61;102329.41;144994;610;5004;-81
2021/10/26 03:10:34;;;;;;;4.35;1.90;;;;;;;14.98;51.47;102321.72;144994;569;5004;-81
2021/10/26 03:13:00;;;;;;;2.47;1.48;;;;;;;15.01;51.79;102326.19;144994;606;5004;-84
2021/10/26 03:15:28;;;;;;;3.70;1.55;;;;;;;15.00;51.72;102321.78;144994;654;5004;-84
2021/10/26 03:17:55;;;;;;;4.47;1.95;;;;;;;15.03;51.65;102327.12;144994;581;4571;-81
2021/10/26 03:20:22;;;;;;;3.80;2.00;;;;;;;15.04;51.67;102316.72;144994;572;4574;-82
2021/10/26 03:22:48;;;;;;;3.17;1.80;;;;;;;15.09;51.39;102316.88;144992;583;6004;-84
2021/10/26 03:25:16;;;;;;;7.18;2.00;;;;;;;15.11;51.54;102320.47;144992;593;6004;-82
2021/10/26 03:27:43;;;;;;;4.87;2.05;;;;;;;15.10;51.43;102316.06;144992;604;6004;-84
2021/10/26 03:30:14;;;;;;;5.28;1.90;;;;;;;15.11;51.87;102315.25;144992;603;6004;-83
2021/10/26 03:32:40;;;;;;;4.95;2.00;;;;;;;15.14;51.72;102319.66;144992;573;6004;-83
2021/10/26 03:35:07;;;;;;;5.25;2.08;;;;;;;15.14;51.62;102323.16;144992;606;6005;-83
2021/10/26 03:37:36;;;;;;;5.18;2.15;;;;;;;15.14;51.53;102325.78;144992;597;6004;-83
2021/10/26 03:40:07;;;;;;;4.95;2.00;;;;;;;15.15;51.94;102330.19;144992;577;6004;-84
2021/10/26 03:42:33;;;;;;;3.33;2.10;;;;;;;14.87;51.84;102331.81;144992;638;6005;-83
2021/10/26 03:45:00;;;;;;;7.00;2.20;;;;;;;14.94;52.31;102334.66;144992;617;6004;-83
2021/10/26 03:47:26;;;;;;;7.28;2.28;;;;;;;14.93;52.44;102331.13;144992;577;6004;-83
2021/10/26 03:49:53;;;;;;;4.85;1.70;;;;;;;14.96;52.17;102330.34;144992;635;6005;-82
2021/10/26 03:52:20;;;;;;;5.10;1.90;;;;;;;14.99;52.05;102323.50;144992;572;6004;-81
2021/10/26 03:54:46;;;;;;;3.97;1.75;;;;;;;15.04;51.84;102326.28;144992;589;6004;-82
2021/10/26 03:57:12;;;;;;;4.57;1.70;;;;;;;15.04;52.18;102327.19;144992;609;6004;-83
2021/10/26 03:59:40;;;;;;;5.70;1.77;;;;;;;15.08;52.11;102319.44;144992;583;6004;-83
2021/10/26 04:02:12;;;;;;;4.47;1.77;;;;;;;15.10;52.01;102321.28;144992;620;6004;-83
2021/10/26 04:04:39;;;;;;;3.92;1.70;;;;;;;15.15;52.08;102319.72;144992;568;6004;-82
2021/10/26 04:07:09;;;;;;;2.50;1.42;;;;;;;15.18;52.05;102309.38;144992;571;6004;-82
2021/10/26 04:09:48;;;;;;;4.03;1.65;;;;;;;15.21;52.07;102322.56;144992;585;6004;-83
2021/10/26 04:12:24;;;;;;;3.03;1.50;;;;;;;15.24;52.05;102321.81;144992;605;6004;-84
2021/10/26 04:14:55;;;;;;;4.60;1.67;;;;;;;15.25;52.04;102320.94;144992;568;6004;-82
2021/10/26 04:17:28;;;;;;;3.25;1.50;;;;;;;15.19;52.18;102321.63;144992;567;6004;-83
2021/10/26 04:19:59;;;;;;;3.72;1.50;;;;;;;15.20;52.42;102320.78;144992;604;6004;-83
2021/10/26 04:22:27;;;;;;;8.68;2.35;;;;;;;15.23;52.71;102312.16;144992;585;6004;-83
2021/10/26 04:24:54;;;;;;;5.90;1.58;;;;;;;15.32;52.56;102322.97;144992;620;6004;-84
2021/10/26 04:27:21;;;;;;;2.20;1.50;;;;;;;15.36;52.37;102308.25;144992;585;6004;-83
2021/10/26 04:29:48;;;;;;;4.20;1.30;;;;;;;15.41;52.29;102311.91;144992;590;6004;-83
2021/10/26 04:32:16;;;;;;;6.53;1.90;;;;;;;15.45;52.37;102311.22;144991;567;6000;-82
2021/10/26 04:34:43;;;;;;;3.45;1.70;;;;;;;15.47;51.89;102312.13;144992;566;6002;-83
2021/10/26 04:37:10;;;;;;;4.95;1.40;;;;;;;15.46;52.03;102304.22;144992;591;6002;-83
2021/10/26 04:39:40;;;;;;;4.32;1.60;;;;;;;15.49;51.98;102305.22;144992;582;6002;-81
2021/10/26 04:42:14;;;;;;;3.62;1.80;;;;;;;15.55;51.79;102315.03;144992;599;6002;-87
2021/10/26 04:44:44;;;;;;;5.12;1.37;;;;;;;15.57;52.19;102309.03;144992;566;6002;-85
2021/10/26 04:47:10;;;;;;;3.95;1.58;;;;;;;15.62;51.73;102311.81;144992;590;6002;-84
2021/10/26 04:49:36;;;;;;;4.10;1.52;;;;;;;15.60;51.95;102311.75;144992;592;6003;-81
2021/10/26 04:52:03;;;;;;;3.62;1.33;;;;;;;15.49;50.92;102320.94;144992;570;6002;-81
2021/10/26 04:54:30;;;;;;;2.50;1.37;;;;;;;15.33;49.65;102322.09;144992;607;6002;-81
2021/10/26 04:56:57;;;;;;;1.85;1.20;;;;;;;15.35;52.24;102330.00;144992;598;6003;-81
2021/10/26 04:59:24;;;;;;;3.22;1.30;;;;;;;15.34;52.27;102330.88;144992;591;6002;-85
2021/10/26 05:01:51;;;;;;;5.37;1.75;;;;;;;15.35;51.61;102328.31;144992;613;6002;-84
2021/10/26 05:04:17;;;;;;;1.92;1.00;;;;;;;15.34;52.02;102338.72;144992;591;6002;-81
2021/10/26 05:06:44;;;;;;;2.80;1.30;;;;;;;15.36;51.69;102334.44;144992;589;6002;-81
2021/10/26 05:09:10;;;;;;;4.60;1.27;;;;;;;15.39;51.55;102338.03;144992;617;6002;-84
2021/10/26 05:11:37;;;;;;;4.25;1.50;;;;;;;15.42;51.73;102337.25;144992;667;6002;-86
2021/10/26 05:14:03;;;;;;;3.33;1.50;;;;;;;15.45;51.22;102332.16;144991;610;6002;-85
2021/10/26 05:16:30;;;;;;;2.33;1.87;;;;;;;15.45;51.27;102334.75;144992;572;6002;-84
2021/10/26 05:18:59;;;;;;;4.75;2.33;;;;;;;15.45;51.34;102339.13;144992;577;6002;-86
2021/10/26 05:21:26;;;;;;;3.50;1.73;;;;;;;15.45;51.09;102341.72;144992;575;6002;-87
2021/10/26 05:23:55;;;;;;;5.85;2.95;;;;;;;15.49;50.84;102340.97;144992;569;6002;-85
2021/10/26 05:26:22;;;;;;;5.68;3.03;;;;;;;15.50;50.25;102338.41;144992;637;6002;-82
2021/10/26 05:28:49;;;;;;;3.15;2.40;;;;;;;15.50;51.03;102337.53;144992;598;6002;-84
2021/10/26 05:31:17;;;;;;;4.40;2.20;;;;;;;15.50;50.57;102343.66;144992;567;6002;-85
2021/10/26 05:33:44;;;;;;;3.60;1.58;;;;;;;15.52;50.57;102347.22;144992;573;6002;-85
2021/10/26 05:36:11;;;;;;;2.78;1.50;;;;;;;15.50;50.88;102351.50;144992;583;6002;-85
2021/10/26 05:38:38;;;;;;;3.20;1.52;;;;;;;15.47;50.42;102348.78;144992;610;6002;-85
2021/10/26 05:41:06;;;;;;;3.83;2.25;;;;;;;15.47;50.65;102348.78;144992;573;6003;-83
2021/10/26 05:43:32;;;;;;;4.30;2.40;;;;;;;15.52;50.47;102355.06;144992;564;6002;-80
2021/10/26 05:45:59;;;;;;;4.62;2.80;;;;;;;15.51;50.54;102350.69;144992;592;6002;-81
2021/10/26 05:48:25;;;;;;;4.97;2.58;;;;;;;15.51;50.61;102352.37;144992;572;6002;-81
2021/10/26 05:50:52;;;;;;;2.72;1.70;;;;;;;15.50;50.30;102354.12;144992;574;6002;-80
2021/10/26 05:53:18;;;;;;;5.65;1.80;;;;;;;15.49;50.38;102352.34;144992;566;6002;-81
2021/10/26 05:55:45;;;;;;;3.58;1.70;;;;;;;15.51;50.75;102355.91;144992;588;6002;-80
2021/10/26 05:58:12;;;;;;;3.67;1.62;;;;;;;15.46;50.73;102352.22;144992;585;6002;-80
2021/10/26 06:00:39;;;;;;;6.30;1.80;;;;;;;15.48;51.17;102355.81;144992;570;6002;-81
2021/10/26 06:03:06;;;;;;;3.17;1.60;;;;;;;15.55;50.99;102357.78;144992;581;6002;-79
2021/10/26 06:05:33;;;;;;;1.95;1.30;;;;;;;15.56;49.95;102362.19;144992;653;6002;-80
2021/10/26 06:07:59;;;;;;;2.65;1.48;;;;;;;15.60;50.76;102365.81;144992;608;6002;-80
2021/10/26 06:10:27;;;;;;;3.90;1.50;;;;;;;15.65;50.94;102363.34;144992;570;6002;-80
2021/10/26 06:13:00;;;;;;;1.90;1.27;;;;;;;15.67;51.01;102361.66;144992;571;6002;-86
2021/10/26 06:15:26;;;;;;;8.30;3.42;;;;;;;15.78;51.00;102365.63;144991;601;6002;-85
2021/10/26 06:17:55;;;;;;;10.30;6.22;;;;;;;15.92;50.66;102366.97;144992;582;6002;-83
2021/10/26 06:20:22;;;;;;;12.10;7.03;;;;;;;16.03;50.58;102371.66;144992;569;6002;-84
2021/10/26 06:22:49;;;;;;;11.40;6.05;;;;;;;16.12;51.07;102371.97;144992;603;6002;-85
2021/10/26 06:25:18;;;;;;;15.63;9.63;;;;;;;16.17;50.38;102365.16;144992;576;6002;-83
2021/10/26 06:27:44;;;;;;;11.80;6.87;;;;;;;16.24;50.50;102364.53;144992;577;6002;-84
2021/10/26 06:30:11;;;;;;;9.10;5.60;;;;;;;16.26;50.58;102368.09;144992;564;6002;-84
2021/10/26 06:32:41;;;;;;;69.47;39.72;;;;;;;16.28;50.70;102368.13;144992;694;6002;-85
2021/10/26 06:35:12;;;;;;;23.00;14.50;;;;;;;16.29;50.51;102369.94;144992;650;6002;-84
2021/10/26 06:37:48;;;;;;;19.55;11.73;;;;;;;16.24;50.81;102371.47;144992;572;6002;-83
2021/10/26 06:40:17;;;;;;;28.77;16.48;;;;;;;16.17;51.06;102374.75;144992;585;6002;-83
2021/10/26 06:42:44;;;;;;;4.60;1.77;;;;;;;16.15;50.04;102377.31;144992;624;6002;-84
2021/10/26 06:45:12;;;;;;;4.68;2.53;;;;;;;16.16;51.47;102372.97;144992;592;6002;-84
2021/10/26 06:47:39;;;;;;;6.60;3.75;;;;;;;16.21;51.14;102372.28;144992;605;6002;-84
2021/10/26 06:50:07;;;;;;;3.58;2.50;;;;;;;16.22;51.09;102371.44;144992;595;6002;-83
2021/10/26 06:52:36;;;;;;;3.80;2.20;;;;;;;16.19;50.40;102368.72;144992;565;6002;-84
2021/10/26 06:55:07;;;;;;;4.53;1.85;;;;;;;16.13;51.17;102373.78;144992;569;6002;-83
2021/10/26 06:57:34;;;;;;;3.33;1.80;;;;;;;15.92;49.98;102369.59;144992;588;6002;-80
2021/10/26 07:00:03;;;;;;;2.78;1.55;;;;;;;15.82;51.44;102370.09;144991;579;6002;-85
2021/10/26 07:02:29;;;;;;;7.22;1.87;;;;;;;15.70;51.31;102372.25;144992;612;6002;-82
2021/10/26 07:04:59;;;;;;;5.40;1.80;;;;;;;15.65;51.68;102377.31;144992;603;6002;-83
2021/10/26 07:07:26;;;;;;;2.85;1.35;;;;;;;15.54;51.44;102379.59;144992;563;6002;-83
2021/10/26 07:09:52;;;;;;;3.05;1.58;;;;;;;15.45;51.82;102370.50;144992;569;6002;-82
2021/10/26 07:12:19;;;;;;;2.90;1.35;;;;;;;15.34;51.86;102372.72;144992;622;6002;-84
2021/10/26 07:14:45;;;;;;;4.65;1.37;;;;;;;15.26;52.31;102377.69;144992;582;6002;-84
2021/10/26 07:17:12;;;;;;;2.35;1.25;;;;;;;15.35;52.16;102382.34;144992;564;6002;-85
2021/10/26 07:19:38;;;;;;;2.12;1.33;;;;;;;15.37;51.91;102372.84;144992;566;6002;-84
2021/10/26 07:22:05;;;;;;;3.58;1.80;;;;;;;15.41;51.98;102369.50;144992;609;6002;-81
2021/10/26 07:24:31;;;;;;;2.20;1.65;;;;;;;15.41;51.88;102375.63;144992;586;6002;-82
2021/10/26 07:26:58;;;;;;;2.62;1.37;;;;;;;15.43;52.39;102370.47;144992;594;6002;-82
2021/10/26 07:29:26;;;;;;;3.00;1.90;;;;;;;15.53;52.22;102369.94;144992;563;6002;-81
2021/10/26 07:31:54;;;;;;;6.37;3.05;;;;;;;15.53;51.44;102367.31;144992;592;6002;-81
2021/10/26 07:34:22;;;;;;;5.22;2.58;;;;;;;15.57;51.56;102373.53;144992;640;6002;-83
2021/10/26 07:36:50;;;;;;;5.03;2.22;;;;;;;15.67;51.44;102372.13;144992;601;6002;-83
2021/10/26 07:42:12;;;;;;;;;;;;;;;15.92;51.27;102368.69;144997;906;6004;-83
2021/10/26 07:44:39;;;;;;;2.67;1.40;;;;;;;15.99;51.10;102368.06;144997;626;6002;-82
2021/10/26 07:47:05;;;;;;;3.75;1.70;;;;;;;16.05;51.18;102359.50;144992;564;6002;-82
2021/10/26 07:49:33;;;;;;;1.95;1.37;;;;;;;16.12;51.31;102358.87;144992;617;6002;-83
2021/10/26 07:52:00;;;;;;;3.20;1.58;;;;;;;16.17;48.90;102353.81;144991;614;6002;-82
2021/10/26 07:54:26;;;;;;;10.07;5.15;;;;;;;16.21;50.51;102355.66;144992;622;6002;-83
2021/10/26 07:56:53;;;;;;;4.30;2.83;;;;;;;16.43;50.96;102357.25;144992;639;6002;-82
2021/10/26 07:59:21;;;;;;;2.25;1.20;;;;;;;16.81;50.43;102347.97;144992;583;6002;-83
2021/10/26 08:01:48;;;;;;;3.10;1.27;;;;;;;17.27;49.12;102348.41;144992;585;6002;-82
2021/10/26 08:04:17;;;;;;;2.12;1.45;;;;;;;17.54;47.28;102352.66;144992;589;6002;-82
2021/10/26 08:06:48;;;;;;;2.28;1.33;;;;;;;17.67;49.42;102354.75;144992;658;6002;-82
2021/10/26 08:09:17;;;;;;;2.65;1.50;;;;;;;17.68;48.51;102353.03;144992;591;6002;-82
2021/10/26 08:11:45;;;;;;;1.85;1.10;;;;;;;17.69;50.04;102360.03;144992;570;6002;-83
2021/10/26 08:14:12;;;;;;;2.17;1.15;;;;;;;17.65;50.15;102358.19;144992;710;6002;-84
2021/10/26 08:16:44;;;;;;;2.10;1.30;;;;;;;17.56;50.25;102366.69;144992;574;6002;-82
2021/10/26 08:19:11;;;;;;;2.67;1.10;;;;;;;17.56;49.91;102361.44;144992;604;6002;-84
2021/10/26 08:21:39;;;;;;;3.33;1.60;;;;;;;17.57;47.98;102358.87;144992;682;6002;-83
2021/10/26 08:24:06;;;;;;;3.65;1.60;;;;;;;17.49;47.16;102349.03;144992;585;6002;-81
2021/10/26 08:26:39;;;;;;;5.43;1.42;;;;;;;17.51;49.84;102363.06;144992;620;6002;-81
2021/10/26 08:29:19;;;;;;;4.22;1.80;;;;;;;17.46;49.82;102360.31;144992;709;6002;-83
2021/10/26 08:32:03;;;;;;;4.57;1.80;;;;;;;17.35;48.75;102351.25;144992;715;6002;-83
2021/10/26 08:34:43;;;;;;;4.53;2.03;;;;;;;17.17;49.95;102356.88;144992;593;6002;-84
2021/10/26 08:37:16;;;;;;;2.58;1.85;;;;;;;17.04;49.98;102351.28;144992;612;6002;-81
2021/10/26 08:39:44;;;;;;;3.58;1.95;;;;;;;16.96;49.73;102358.03;144992;563;6002;-83
2021/10/26 08:42:13;;;;;;;3.53;2.05;;;;;;;16.90;50.55;102355.22;144992;574;6002;-84
2021/10/26 08:44:41;;;;;;;5.00;2.60;;;;;;;16.80;49.74;102351.41;144992;574;6002;-84
2021/10/26 08:47:09;;;;;;;4.37;3.00;;;;;;;16.68;49.21;102348.41;144992;573;6010;-84
2021/10/26 08:49:36;;;;;;;5.93;3.05;;;;;;;16.68;50.44;102351.03;144992;608;6002;-81
2021/10/26 08:52:05;;;;;;;2.85;1.55;;;;;;;16.61;49.84;102349.09;144992;577;6002;-82
2021/10/26 08:54:33;;;;;;;2.17;1.33;;;;;;;16.53;49.24;102351.47;144992;586;6002;-82
2021/10/26 08:56:59;;;;;;;3.03;1.58;;;;;;;16.46;49.91;102345.16;144992;739;6002;-83
2021/10/26 08:59:26;;;;;;;3.80;1.60;;;;;;;16.30;50.02;102356.88;144992;609;6002;-83
2021/10/26 09:01:59;;;;;;;3.67;1.42;;;;;;;16.24;50.27;102354.06;144992;678;6002;-81
2021/10/26 09:04:34;;;;;;;3.42;1.60;;;;;;;16.30;51.16;102351.63;144992;575;6002;-82
2021/10/26 09:07:05;;;;;;;4.00;1.50;;;;;;;16.19;50.85;102337.28;144992;580;6002;-84
2021/10/26 09:09:36;;;;;;;1.95;1.12;;;;;;;16.08;50.67;102343.88;144992;698;6002;-83
2021/10/26 09:17:56;;;;;;;3.35;1.33;;;;;;;16.28;50.47;102327.09;144992;572;6002;-82
2021/10/26 09:20:31;;;;;;;4.35;1.80;;;;;;;16.30;50.90;102332.38;144992;619;6002;-84
2021/10/26 09:23:00;;;;;;;3.97;1.73;;;;;;;16.21;50.29;102327.75;144992;565;6002;-83
2021/10/26 09:25:38;;;;;;;4.97;1.80;;;;;;;16.23;51.35;102331.31;144992;575;6002;-82
2021/10/26 09:28:16;;;;;;;2.85;2.05;;;;;;;16.23;51.45;102319.94;144992;571;6002;-83
2021/10/26 09:31:20;;;;;;;2.78;1.90;;;;;;;16.29;51.03;102313.16;144992;589;6002;-81
2021/10/26 09:33:46;;;;;;;2.25;1.40;;;;;;;16.25;51.20;102313.00;144992;576;6004;-84
2021/10/26 09:36:30;;;;;;;1.83;1.25;;;;;;;16.18;50.41;102311.03;144993;569;6000;-83
2021/10/26 09:39:10;;;;;;;2.47;1.23;;;;;;;16.16;50.21;102318.81;144993;582;6002;-83
2021/10/26 09:42:13;;;;;;;4.37;1.40;;;;;;;16.07;50.38;102308.97;144993;648;6002;-83
2021/10/26 09:44:52;;;;;;;3.67;1.80;;;;;;;16.07;49.94;102314.19;144993;596;6004;-84
2021/10/26 09:47:25;;;;;;;3.65;1.45;;;;;;;16.11;51.11;102309.94;144993;678;6003;-84
2021/10/26 09:50:00;;;;;;;2.67;1.52;;;;;;;16.12;49.81;102299.50;144993;636;6002;-83
2021/10/26 09:52:31;;;;;;;2.42;1.52;;;;;;;16.22;50.77;102299.81;144993;569;6002;-83
2021/10/26 09:55:22;;;;;;;4.22;1.60;;;;;;;16.27;49.83;102293.88;144993;580;6002;-84
2021/10/26 09:57:57;;;;;;;3.25;1.50;;;;;;;16.19;49.03;102292.72;144993;603;6002;-82
2021/10/26 10:00:27;;;;;;;7.50;1.37;;;;;;;16.27;51.16;102287.72;144992;575;6002;-82
2021/10/26 10:03:10;;;;;;;3.33;1.58;;;;;;;16.17;49.55;102281.31;144992;579;6002;-84
2021/10/26 10:06:04;;;;;;;2.78;1.30;;;;;;;16.03;49.88;102286.09;144993;585;6002;-83
2021/10/26 10:08:36;;;;;;;2.58;1.30;;;;;;;15.98;50.02;102287.69;144992;586;6002;-83
2021/10/26 10:11:20;;;;;;;3.97;1.70;;;;;;;16.04;51.01;102273.94;144992;581;6002;-83
2021/10/26 10:13:54;;;;;;;5.12;2.70;;;;;;;16.10;50.96;102279.38;144992;659;6000;-81
2021/10/26 10:16:22;;;;;;;1.80;1.30;;;;;;;16.19;50.56;102273.50;144992;587;6000;-81
2021/10/26 10:18:49;;;;;;;3.10;1.50;;;;;;;16.21;51.08;102274.44;144992;579;6000;-82
2021/10/26 10:21:35;;;;;;;2.17;1.50;;;;;;;16.17;49.70;102260.37;144993;598;6000;-82
2021/10/26 10:24:05;;;;;;;3.45;2.15;;;;;;;16.21;50.43;102263.97;144993;578;6002;-83
2021/10/26 10:26:35;;;;;;;6.12;1.70;;;;;;;16.27;49.82;102259.81;144993;564;6002;-82
2021/10/26 10:29:02;;;;;;;5.72;1.67;;;;;;;16.23;50.60;102259.69;144993;588;6002;-82
2021/10/26 10:31:30;;;;;;;2.67;1.37;;;;;;;16.25;49.93;102247.50;144993;657;6002;-81
2021/10/26 10:33:59;;;;;;;5.00;2.87;;;;;;;16.23;49.23;102249.19;144993;571;6002;-84
2021/10/26 10:36:27;;;;;;;4.05;1.60;;;;;;;16.16;48.90;102245.47;144993;657;6002;-81
2021/10/26 10:39:03;;;;;;;4.70;1.65;;;;;;;16.19;49.98;102242.06;144993;723;6002;-84
2021/10/26 10:41:37;;;;;;;3.83;1.42;;;;;;;16.21;50.65;102236.03;144993;578;6002;-82
2021/10/26 10:44:08;;;;;;;5.72;3.00;;;;;;;16.23;50.75;102239.59;144993;654;6002;-83
2021/10/26 10:46:43;;;;;;;7.72;5.45;;;;;;;16.23;50.10;102229.13;144993;570;6003;-84
2021/10/26 10:49:50;;;;;;;2.85;1.33;;;;;;;16.36;49.89;102230.37;144993;601;6002;-83
2021/10/26 10:52:27;;;;;;;4.12;1.50;;;;;;;16.41;48.60;102220.91;144992;571;6002;-82
2021/10/26 10:54:54;;;;;;;1.85;1.00;;;;;;;16.40;49.66;102211.28;144993;566;6002;-83
2021/10/26 10:57:49;;;;;;;2.47;1.50;;;;;;;16.45;50.01;102211.44;144993;589;6002;-83
2021/10/26 11:00:25;;;;;;;4.60;1.60;;;;;;;16.53;50.23;102206.37;144992;572;6000;-83
2021/10/26 11:02:56;;;;;;;2.05;1.20;;;;;;;16.49;50.04;102201.03;144993;577;6004;-81
2021/10/26 11:05:51;;;;;;;3.28;1.25;;;;;;;16.44;49.05;102200.03;144993;605;6002;-82
2021/10/26 11:08:47;;;;;;;2.70;1.45;;;;;;;16.43;49.21;102194.75;144993;615;6004;-83
2021/10/26 11:11:17;;;;;;;3.15;1.23;;;;;;;16.28;49.13;102198.69;144993;572;6004;-82
2021/10/26 11:13:44;;;;;;;2.50;1.35;;;;;;;16.28;50.45;102187.34;144993;680;6002;-82
2021/10/26 11:16:12;;;;;;;3.72;1.60;;;;;;;16.24;49.73;102180.22;144994;575;5002;-83
2021/10/26 11:18:53;;;;;;;2.20;1.30;;;;;;;16.19;49.67;102172.22;144994;606;5002;-84
2021/10/26 11:21:37;;;;;;;5.18;1.30;;;;;;;16.10;49.42;102175.47;144994;620;5002;-83
2021/10/26 11:24:07;;;;;;;4.50;1.85;;;;;;;16.12;49.92;102168.53;144994;588;5004;-81
2021/10/26 11:26:39;;;;;;;4.20;1.80;;;;;;;16.15;49.96;102167.75;144994;634;5004;-81
2021/10/26 11:29:28;;;;;;;3.35;1.73;;;;;;;16.09;50.04;102162.31;144994;603;5004;-83
2021/10/26 11:31:55;;;;;;;4.10;1.37;;;;;;;16.13;49.80;102158.97;144994;601;5004;-83
2021/10/26 11:34:25;;;;;;;2.28;1.45;;;;;;;16.10;49.53;102161.47;144994;581;5004;-81
2021/10/26 11:37:21;;;;;;;4.03;1.37;;;;;;;16.21;50.06;102160.06;144994;707;5004;-83
2021/10/26 11:39:48;;;;;;;3.78;1.50;;;;;;;16.21;49.98;102151.28;144994;697;5002;-85
2021/10/26 11:42:17;;;;;;;3.37;1.55;;;;;;;16.31;49.26;102155.97;144994;569;5002;-82
2021/10/26 11:44:44;;;;;;;3.10;1.33;;;;;;;16.35;49.38;102143.84;144994;581;5002;-82
2021/10/26 11:47:10;;;;;;;4.05;1.35;;;;;;;16.40;49.41;102139.63;144994;585;5002;-81
2021/10/26 11:49:38;;;;;;;2.50;1.62;;;;;;;16.35;49.09;102143.84;144994;721;5002;-83
2021/10/26 11:52:07;;;;;;;3.12;1.25;;;;;;;16.28;48.65;102134.94;144994;569;5002;-80
2021/10/26 11:54:49;;;;;;;5.62;1.40;;;;;;;16.18;49.55;102138.09;144994;631;5002;-81